sensor_id;sensor_type;location;lat;lon;timestamp;pressure;altitude;pressure_sealevel;temperature;humidity
59009;BME280;44794;42.652;23.318;2022-12-11T00:01:42;92282.38;;;9.75;100.00
59009;BME280;44794;42.652;23.318;2022-12-11T00:04:07;92263.28;;;9.76;100.00
59009;BME280;44794;42.652;23.318;2022-12-11T00:06:33;92278.00;;;9.75;100.00
59009;BME280;44794;42.652;23.318;2022-12-11T00:08:58;92271.22;;;9.74;100.00
59009;BME280;44794;42.652;23.318;2022-12-11T00:11:23;92276.06;;;9.62;100.00
59009;BME280;44794;42.652;23.318;2022-12-11T00:13:49;92283.34;;;9.66;100.00
59009;BME280;44794;42.652;23.318;2022-12-11T00:16:15;92206.47;;;9.59;100.00
59009;BME280;44794;42.652;23.318;2022-12-11T00:18:40;92279.31;;;9.64;100.00
59009;BME280;44794;42.652;23.318;2022-12-11T00:21:07;92229.44;;;9.62;100.00
59009;BME280;44794;42.652;23.318;2022-12-11T00:23:34;92262.16;;;9.63;100.00
59009;BME280;44794;42.652;23.318;2022-12-11T00:26:04;92224.56;;;9.74;100.00
59009;BME280;44794;42.652;23.318;2022-12-11T00:28:30;92246.09;;;9.75;100.00
59009;BME280;44794;42.652;23.318;2022-12-11T00:30:56;92244.97;;;9.77;100.00
59009;BME280;44794;42.652;23.318;2022-12-11T00:33:21;92240.44;;;9.71;100.00
59009;BME280;44794;42.652;23.318;2022-12-11T00:35:47;92257.31;;;9.68;100.00
59009;BME280;44794;42.652;23.318;2022-12-11T00:38:18;92246.28;;;9.66;100.00
59009;BME280;44794;42.652;23.318;2022-12-11T00:40:44;92261.53;;;9.61;100.00
59009;BME280;44794;42.652;23.318;2022-12-11T00:43:10;92235.25;;;9.71;100.00
59009;BME280;44794;42.652;23.318;2022-12-11T00:45:37;92241.41;;;9.70;100.00
59009;BME280;44794;42.652;23.318;2022-12-11T00:48:03;92243.88;;;9.64;100.00
59009;BME280;44794;42.652;23.318;2022-12-11T00:50:28;92242.72;;;9.74;100.00
59009;BME280;44794;42.652;23.318;2022-12-11T00:52:54;92236.22;;;9.70;100.00
59009;BME280;44794;42.652;23.318;2022-12-11T00:55:19;92259.53;;;9.70;100.00
59009;BME280;44794;42.652;23.318;2022-12-11T00:57:45;92250.97;;;9.70;100.00
59009;BME280;44794;42.652;23.318;2022-12-11T01:00:12;92241.91;;;9.66;100.00
59009;BME280;44794;42.652;23.318;2022-12-11T01:02:37;92243.03;;;9.56;100.00
59009;BME280;44794;42.652;23.318;2022-12-11T01:05:03;92245.63;;;9.64;100.00
59009;BME280;44794;42.652;23.318;2022-12-11T01:07:29;92249.19;;;9.70;100.00
59009;BME280;44794;42.652;23.318;2022-12-11T01:09:54;92284.00;;;9.60;100.00
59009;BME280;44794;42.652;23.318;2022-12-11T01:12:38;92241.75;;;9.60;100.00
59009;BME280;44794;42.652;23.318;2022-12-11T01:15:04;92251.16;;;9.53;100.00
59009;BME280;44794;42.652;23.318;2022-12-11T01:17:30;92244.00;;;9.55;100.00
59009;BME280;44794;42.652;23.318;2022-12-11T01:19:55;92253.25;;;9.57;100.00
59009;BME280;44794;42.652;23.318;2022-12-11T01:22:21;92253.41;;;9.64;100.00
59009;BME280;44794;42.652;23.318;2022-12-11T01:24:47;92244.19;;;9.61;100.00
59009;BME280;44794;42.652;23.318;2022-12-11T01:27:13;92293.88;;;9.72;100.00
59009;BME280;44794;42.652;23.318;2022-12-11T01:29:38;92236.50;;;9.83;100.00
59009;BME280;44794;42.652;23.318;2022-12-11T01:32:04;92248.50;;;9.92;100.00
59009;BME280;44794;42.652;23.318;2022-12-11T01:34:30;92185.63;;;10.37;100.00
59009;BME280;44794;42.652;23.318;2022-12-11T01:36:56;92204.13;;;10.64;100.00
59009;BME280;44794;42.652;23.318;2022-12-11T01:39:21;92210.25;;;11.16;100.00
59009;BME280;44794;42.652;23.318;2022-12-11T01:41:47;92229.97;;;11.84;100.00
59009;BME280;44794;42.652;23.318;2022-12-11T01:46:38;92265.16;;;11.94;98.37
59009;BME280;44794;42.652;23.318;2022-12-11T01:49:07;92335.38;;;11.94;97.64
59009;BME280;44794;42.652;23.318;2022-12-11T01:51:58;92271.16;;;11.95;97.67
59009;BME280;44794;42.652;23.318;2022-12-11T01:54:23;92294.06;;;12.28;94.44
59009;BME280;44794;42.652;23.318;2022-12-11T01:56:52;92308.78;;;12.35;93.66
59009;BME280;44794;42.652;23.318;2022-12-11T01:59:23;92375.16;;;12.54;92.36
59009;BME280;44794;42.652;23.318;2022-12-11T02:01:56;92412.28;;;12.48;87.33
59009;BME280;44794;42.652;23.318;2022-12-11T02:04:23;92366.06;;;12.35;85.84
59009;BME280;44794;42.652;23.318;2022-12-11T02:06:50;92395.66;;;12.49;82.54
59009;BME280;44794;42.652;23.318;2022-12-11T02:09:19;92363.44;;;12.35;83.46
59009;BME280;44794;42.652;23.318;2022-12-11T02:12:01;92343.34;;;12.29;84.70
59009;BME280;44794;42.652;23.318;2022-12-11T02:14:42;92343.34;;;12.29;84.94
59009;BME280;44794;42.652;23.318;2022-12-11T02:19:51;92308.06;;;12.56;83.81
59009;BME280;44794;42.652;23.318;2022-12-11T02:25:33;92307.06;;;12.85;84.22
59009;BME280;44794;42.652;23.318;2022-12-11T02:28:19;92283.94;;;13.11;84.37
59009;BME280;44794;42.652;23.318;2022-12-11T02:30:58;92299.59;;;13.11;84.49
59009;BME280;44794;42.652;23.318;2022-12-11T02:33:33;92294.38;;;13.11;85.14
59009;BME280;44794;42.652;23.318;2022-12-11T02:36:03;92324.56;;;13.20;84.70
59009;BME280;44794;42.652;23.318;2022-12-11T02:38:35;92336.09;;;13.47;83.79
59009;BME280;44794;42.652;23.318;2022-12-11T02:41:04;92392.31;;;13.70;82.01
59009;BME280;44794;42.652;23.318;2022-12-11T02:43:33;92374.28;;;13.96;79.40
59009;BME280;44794;42.652;23.318;2022-12-11T02:46:03;92373.81;;;13.86;80.05
59009;BME280;44794;42.652;23.318;2022-12-11T02:48:31;92371.81;;;13.88;78.27
59009;BME280;44794;42.652;23.318;2022-12-11T02:50:59;92386.78;;;14.00;75.56
59009;BME280;44794;42.652;23.318;2022-12-11T02:53:28;92366.91;;;13.99;73.73
59009;BME280;44794;42.652;23.318;2022-12-11T02:56:01;92396.91;;;14.10;70.85
59009;BME280;44794;42.652;23.318;2022-12-11T02:58:30;92368.47;;;14.15;70.03
59009;BME280;44794;42.652;23.318;2022-12-11T03:00:56;92381.94;;;14.18;69.66
59009;BME280;44794;42.652;23.318;2022-12-11T03:03:22;92367.00;;;14.27;68.99
59009;BME280;44794;42.652;23.318;2022-12-11T03:05:47;92382.53;;;14.34;68.97
59009;BME280;44794;42.652;23.318;2022-12-11T03:08:13;92374.78;;;14.47;69.00
59009;BME280;44794;42.652;23.318;2022-12-11T03:10:42;92385.16;;;14.41;69.38
59009;BME280;44794;42.652;23.318;2022-12-11T03:13:08;92381.63;;;14.48;69.58
59009;BME280;44794;42.652;23.318;2022-12-11T03:15:43;92421.69;;;14.62;68.57
59009;BME280;44794;42.652;23.318;2022-12-11T03:18:43;92389.00;;;14.66;68.35
59009;BME280;44794;42.652;23.318;2022-12-11T03:21:22;92388.16;;;14.65;69.40
59009;BME280;44794;42.652;23.318;2022-12-11T03:24:03;92404.41;;;14.61;70.04
59009;BME280;44794;42.652;23.318;2022-12-11T03:26:32;92386.47;;;14.30;71.67
59009;BME280;44794;42.652;23.318;2022-12-11T03:29:04;92413.16;;;14.26;72.09
59009;BME280;44794;42.652;23.318;2022-12-11T03:31:42;92406.44;;;14.38;70.32
59009;BME280;44794;42.652;23.318;2022-12-11T03:34:16;92377.91;;;14.36;71.06
59009;BME280;44794;42.652;23.318;2022-12-11T03:36:44;92425.66;;;14.30;71.19
59009;BME280;44794;42.652;23.318;2022-12-11T03:39:15;92436.22;;;14.23;71.24
59009;BME280;44794;42.652;23.318;2022-12-11T03:41:44;92435.97;;;14.18;71.72
59009;BME280;44794;42.652;23.318;2022-12-11T03:44:11;92431.75;;;14.37;69.37
59009;BME280;44794;42.652;23.318;2022-12-11T03:46:38;92478.69;;;14.52;68.46
59009;BME280;44794;42.652;23.318;2022-12-11T03:49:09;92478.16;;;14.63;67.55
59009;BME280;44794;42.652;23.318;2022-12-11T03:51:39;92465.41;;;14.74;67.44
59009;BME280;44794;42.652;23.318;2022-12-11T03:54:06;92459.13;;;14.69;67.19
59009;BME280;44794;42.652;23.318;2022-12-11T03:56:33;92478.97;;;14.63;68.03
59009;BME280;44794;42.652;23.318;2022-12-11T03:59:00;92485.69;;;14.51;68.78
59009;BME280;44794;42.652;23.318;2022-12-11T04:01:26;92500.63;;;14.57;67.85
59009;BME280;44794;42.652;23.318;2022-12-11T04:03:51;92494.22;;;14.60;69.37
59009;BME280;44794;42.652;23.318;2022-12-11T04:06:17;92507.56;;;14.29;71.38
59009;BME280;44794;42.652;23.318;2022-12-11T04:08:42;92472.44;;;14.53;68.18
59009;BME280;44794;42.652;23.318;2022-12-11T04:11:08;92461.13;;;14.67;67.83
59009;BME280;44794;42.652;23.318;2022-12-11T04:13:52;92464.88;;;14.58;67.83
59009;BME280;44794;42.652;23.318;2022-12-11T04:16:36;92512.31;;;14.61;66.99
59009;BME280;44794;42.652;23.318;2022-12-11T04:19:03;92501.44;;;14.79;65.61
59009;BME280;44794;42.652;23.318;2022-12-11T04:21:46;92500.72;;;14.70;64.55
59009;BME280;44794;42.652;23.318;2022-12-11T04:24:30;92488.50;;;14.71;66.49
59009;BME280;44794;42.652;23.318;2022-12-11T04:26:55;92478.16;;;14.84;64.62
59009;BME280;44794;42.652;23.318;2022-12-11T04:29:21;92518.13;;;14.84;63.75
59009;BME280;44794;42.652;23.318;2022-12-11T04:31:46;92537.56;;;14.96;63.75
59009;BME280;44794;42.652;23.318;2022-12-11T04:34:12;92554.72;;;15.05;64.75
59009;BME280;44794;42.652;23.318;2022-12-11T04:36:37;92557.16;;;15.06;63.50
59009;BME280;44794;42.652;23.318;2022-12-11T04:39:04;92543.66;;;15.24;62.53
59009;BME280;44794;42.652;23.318;2022-12-11T04:41:30;92518.22;;;15.39;61.77
59009;BME280;44794;42.652;23.318;2022-12-11T04:43:55;92533.72;;;15.19;61.82
59009;BME280;44794;42.652;23.318;2022-12-11T04:46:22;92544.50;;;15.10;61.07
59009;BME280;44794;42.652;23.318;2022-12-11T04:48:48;92576.38;;;14.99;62.56
59009;BME280;44794;42.652;23.318;2022-12-11T04:51:14;92554.56;;;14.86;64.55
59009;BME280;44794;42.652;23.318;2022-12-11T04:53:40;92516.41;;;14.70;63.62
59009;BME280;44794;42.652;23.318;2022-12-11T04:56:08;92522.00;;;14.88;61.86
59009;BME280;44794;42.652;23.318;2022-12-11T04:58:35;92564.44;;;14.90;61.79
59009;BME280;44794;42.652;23.318;2022-12-11T05:01:09;92579.25;;;14.83;62.11
59009;BME280;44794;42.652;23.318;2022-12-11T05:03:34;92592.13;;;14.85;61.04
59009;BME280;44794;42.652;23.318;2022-12-11T05:06:00;92573.22;;;14.83;61.27
59009;BME280;44794;42.652;23.318;2022-12-11T05:08:25;92560.03;;;14.91;61.30
59009;BME280;44794;42.652;23.318;2022-12-11T05:10:59;92567.19;;;14.82;61.70
59009;BME280;44794;42.652;23.318;2022-12-11T05:13:26;92546.88;;;14.84;62.03
59009;BME280;44794;42.652;23.318;2022-12-11T05:15:52;92565.06;;;14.92;61.38
59009;BME280;44794;42.652;23.318;2022-12-11T05:18:18;92556.72;;;14.82;62.24
59009;BME280;44794;42.652;23.318;2022-12-11T05:20:43;92564.06;;;14.72;62.53
59009;BME280;44794;42.652;23.318;2022-12-11T05:23:09;92577.13;;;14.72;62.45
59009;BME280;44794;42.652;23.318;2022-12-11T05:25:34;92575.25;;;14.66;62.39
59009;BME280;44794;42.652;23.318;2022-12-11T05:28:00;92561.84;;;14.69;62.13
59009;BME280;44794;42.652;23.318;2022-12-11T05:30:25;92567.94;;;14.76;61.72
59009;BME280;44794;42.652;23.318;2022-12-11T05:32:51;92575.63;;;14.63;63.08
59009;BME280;44794;42.652;23.318;2022-12-11T05:35:16;92555.00;;;14.68;62.19
59009;BME280;44794;42.652;23.318;2022-12-11T05:37:42;92554.28;;;14.81;61.96
59009;BME280;44794;42.652;23.318;2022-12-11T05:40:08;92540.94;;;14.69;63.03
59009;BME280;44794;42.652;23.318;2022-12-11T05:42:34;92538.56;;;14.74;62.70
59009;BME280;44794;42.652;23.318;2022-12-11T05:44:59;92521.34;;;14.80;62.66
59009;BME280;44794;42.652;23.318;2022-12-11T05:47:24;92519.31;;;14.82;62.48
59009;BME280;44794;42.652;23.318;2022-12-11T05:49:50;92548.69;;;14.84;62.17
59009;BME280;44794;42.652;23.318;2022-12-11T05:52:16;92524.84;;;14.93;61.44
59009;BME280;44794;42.652;23.318;2022-12-11T05:54:42;92535.00;;;14.82;62.43
59009;BME280;44794;42.652;23.318;2022-12-11T05:57:07;92529.63;;;14.83;61.76
59009;BME280;44794;42.652;23.318;2022-12-11T05:59:33;92518.00;;;14.92;60.91
59009;BME280;44794;42.652;23.318;2022-12-11T06:01:58;92525.94;;;15.05;60.30
59009;BME280;44794;42.652;23.318;2022-12-11T06:04:24;92511.84;;;15.00;60.96
59009;BME280;44794;42.652;23.318;2022-12-11T06:06:49;92528.09;;;14.95;60.97
59009;BME280;44794;42.652;23.318;2022-12-11T06:09:17;92507.19;;;14.95;61.43
59009;BME280;44794;42.652;23.318;2022-12-11T06:11:43;92526.81;;;15.12;60.21
59009;BME280;44794;42.652;23.318;2022-12-11T06:14:09;92510.97;;;15.20;59.28
59009;BME280;44794;42.652;23.318;2022-12-11T06:16:35;92525.34;;;15.24;57.95
59009;BME280;44794;42.652;23.318;2022-12-11T06:19:01;92537.75;;;15.22;58.74
59009;BME280;44794;42.652;23.318;2022-12-11T06:21:29;92564.47;;;15.17;60.10
59009;BME280;44794;42.652;23.318;2022-12-11T06:23:56;92550.22;;;15.20;59.52
59009;BME280;44794;42.652;23.318;2022-12-11T06:26:22;92546.25;;;15.24;59.25
59009;BME280;44794;42.652;23.318;2022-12-11T06:28:48;92572.00;;;15.27;58.93
59009;BME280;44794;42.652;23.318;2022-12-11T06:31:14;92565.16;;;15.47;57.76
59009;BME280;44794;42.652;23.318;2022-12-11T06:33:40;92548.28;;;15.56;56.49
59009;BME280;44794;42.652;23.318;2022-12-11T06:36:08;92551.88;;;15.48;57.30
59009;BME280;44794;42.652;23.318;2022-12-11T06:38:34;92541.59;;;15.47;58.00
59009;BME280;44794;42.652;23.318;2022-12-11T06:41:01;92528.75;;;15.52;57.96
59009;BME280;44794;42.652;23.318;2022-12-11T06:43:29;92539.41;;;15.50;57.85
59009;BME280;44794;42.652;23.318;2022-12-11T06:45:54;92544.91;;;15.62;56.42
59009;BME280;44794;42.652;23.318;2022-12-11T06:48:20;92526.56;;;15.55;57.09
59009;BME280;44794;42.652;23.318;2022-12-11T06:50:45;92553.78;;;15.61;57.02
59009;BME280;44794;42.652;23.318;2022-12-11T06:53:12;92573.53;;;15.70;56.63
59009;BME280;44794;42.652;23.318;2022-12-11T06:55:38;92573.66;;;15.55;57.76
59009;BME280;44794;42.652;23.318;2022-12-11T06:58:04;92559.72;;;15.48;57.48
59009;BME280;44794;42.652;23.318;2022-12-11T07:00:29;92586.09;;;15.53;57.63
59009;BME280;44794;42.652;23.318;2022-12-11T07:02:55;92592.75;;;15.56;59.26
59009;BME280;44794;42.652;23.318;2022-12-11T07:05:20;92589.72;;;15.52;59.75
59009;BME280;44794;42.652;23.318;2022-12-11T07:07:46;92579.31;;;15.59;60.20
59009;BME280;44794;42.652;23.318;2022-12-11T07:10:11;92584.13;;;15.62;58.93
59009;BME280;44794;42.652;23.318;2022-12-11T07:12:37;92597.13;;;15.49;60.18
59009;BME280;44794;42.652;23.318;2022-12-11T07:15:04;92590.91;;;15.50;59.29
59009;BME280;44794;42.652;23.318;2022-12-11T07:17:29;92568.19;;;15.50;60.08
59009;BME280;44794;42.652;23.318;2022-12-11T07:19:55;92589.28;;;15.49;59.92
59009;BME280;44794;42.652;23.318;2022-12-11T07:22:20;92575.63;;;15.53;59.87
59009;BME280;44794;42.652;23.318;2022-12-11T07:24:46;92590.78;;;15.58;59.36
59009;BME280;44794;42.652;23.318;2022-12-11T07:27:11;92585.25;;;15.74;58.09
59009;BME280;44794;42.652;23.318;2022-12-11T07:29:36;92594.94;;;15.79;58.75
59009;BME280;44794;42.652;23.318;2022-12-11T07:32:02;92597.63;;;15.92;56.44
59009;BME280;44794;42.652;23.318;2022-12-11T07:34:31;92608.81;;;16.07;55.95
59009;BME280;44794;42.652;23.318;2022-12-11T07:36:56;92629.13;;;16.05;56.23
59009;BME280;44794;42.652;23.318;2022-12-11T07:39:22;92633.38;;;16.06;56.55
59009;BME280;44794;42.652;23.318;2022-12-11T07:41:47;92623.47;;;16.02;56.90
59009;BME280;44794;42.652;23.318;2022-12-11T07:44:13;92651.81;;;15.92;56.54
59009;BME280;44794;42.652;23.318;2022-12-11T07:46:39;92642.63;;;16.02;56.02
59009;BME280;44794;42.652;23.318;2022-12-11T07:49:05;92637.56;;;16.01;56.68
59009;BME280;44794;42.652;23.318;2022-12-11T07:51:33;92655.44;;;15.97;56.83
59009;BME280;44794;42.652;23.318;2022-12-11T07:54:25;92636.56;;;16.02;56.75
59009;BME280;44794;42.652;23.318;2022-12-11T07:56:51;92640.22;;;16.07;56.18
59009;BME280;44794;42.652;23.318;2022-12-11T07:59:16;92619.72;;;16.17;56.05
59009;BME280;44794;42.652;23.318;2022-12-11T08:01:42;92647.88;;;16.09;56.47
59009;BME280;44794;42.652;23.318;2022-12-11T08:04:09;92635.25;;;16.19;56.29
59009;BME280;44794;42.652;23.318;2022-12-11T08:06:37;92633.84;;;16.16;55.85
59009;BME280;44794;42.652;23.318;2022-12-11T08:09:06;92647.09;;;16.15;56.28
59009;BME280;44794;42.652;23.318;2022-12-11T08:11:32;92658.06;;;16.25;56.68
59009;BME280;44794;42.652;23.318;2022-12-11T08:13:58;92636.97;;;16.05;58.40
59009;BME280;44794;42.652;23.318;2022-12-11T08:16:24;92620.81;;;15.95;58.67
59009;BME280;44794;42.652;23.318;2022-12-11T08:18:50;92642.09;;;15.86;58.53
59009;BME280;44794;42.652;23.318;2022-12-11T08:21:18;92653.09;;;16.02;57.60
59009;BME280;44794;42.652;23.318;2022-12-11T08:23:44;92657.63;;;15.87;58.34
59009;BME280;44794;42.652;23.318;2022-12-11T08:26:12;92653.59;;;15.91;59.30
59009;BME280;44794;42.652;23.318;2022-12-11T08:28:38;92655.28;;;15.99;59.75
59009;BME280;44794;42.652;23.318;2022-12-11T08:31:05;92642.13;;;15.92;60.33
59009;BME280;44794;42.652;23.318;2022-12-11T08:33:32;92654.75;;;15.82;60.54
59009;BME280;44794;42.652;23.318;2022-12-11T08:36:00;92643.91;;;15.85;58.71
59009;BME280;44794;42.652;23.318;2022-12-11T08:38:26;92658.66;;;15.93;58.19
59009;BME280;44794;42.652;23.318;2022-12-11T08:40:51;92630.81;;;15.85;57.64
59009;BME280;44794;42.652;23.318;2022-12-11T08:43:17;92633.56;;;15.77;59.24
59009;BME280;44794;42.652;23.318;2022-12-11T08:45:42;92631.41;;;15.54;61.60
59009;BME280;44794;42.652;23.318;2022-12-11T08:48:07;92636.94;;;15.44;62.74
59009;BME280;44794;42.652;23.318;2022-12-11T08:50:33;92624.16;;;15.28;62.49
59009;BME280;44794;42.652;23.318;2022-12-11T08:52:58;92626.66;;;15.01;62.99
59009;BME280;44794;42.652;23.318;2022-12-11T08:55:24;92631.69;;;15.02;62.40
59009;BME280;44794;42.652;23.318;2022-12-11T08:57:49;92630.66;;;14.97;63.53
59009;BME280;44794;42.652;23.318;2022-12-11T09:00:15;92634.28;;;14.96;64.02
59009;BME280;44794;42.652;23.318;2022-12-11T09:02:41;92642.22;;;15.09;65.43
59009;BME280;44794;42.652;23.318;2022-12-11T09:05:07;92647.25;;;15.25;65.40
59009;BME280;44794;42.652;23.318;2022-12-11T09:07:34;92639.00;;;15.49;64.44
59009;BME280;44794;42.652;23.318;2022-12-11T09:10:00;92624.50;;;15.46;65.26
59009;BME280;44794;42.652;23.318;2022-12-11T09:12:26;92618.00;;;15.63;64.88
59009;BME280;44794;42.652;23.318;2022-12-11T09:14:53;92619.25;;;15.46;67.09
59009;BME280;44794;42.652;23.318;2022-12-11T09:17:18;92618.78;;;15.64;66.61
59009;BME280;44794;42.652;23.318;2022-12-11T09:19:44;92615.06;;;15.79;65.77
59009;BME280;44794;42.652;23.318;2022-12-11T09:22:09;92610.34;;;15.95;64.90
59009;BME280;44794;42.652;23.318;2022-12-11T09:24:36;92620.06;;;16.01;61.56
59009;BME280;44794;42.652;23.318;2022-12-11T09:27:02;92616.94;;;16.25;59.69
59009;BME280;44794;42.652;23.318;2022-12-11T09:29:28;92622.16;;;16.59;57.89
59009;BME280;44794;42.652;23.318;2022-12-11T09:31:53;92616.84;;;16.93;57.28
59009;BME280;44794;42.652;23.318;2022-12-11T09:34:19;92636.03;;;17.13;57.54
59009;BME280;44794;42.652;23.318;2022-12-11T09:36:45;92621.16;;;17.39;56.90
59009;BME280;44794;42.652;23.318;2022-12-11T09:39:12;92635.50;;;17.36;55.99
59009;BME280;44794;42.652;23.318;2022-12-11T09:44:38;92630.47;;;17.54;53.44
59009;BME280;44794;42.652;23.318;2022-12-11T09:47:16;92624.59;;;17.65;52.41
59009;BME280;44794;42.652;23.318;2022-12-11T09:49:44;92619.78;;;17.62;53.60
59009;BME280;44794;42.652;23.318;2022-12-11T09:55:09;92615.13;;;17.45;53.32
59009;BME280;44794;42.652;23.318;2022-12-11T10:00:13;92619.94;;;17.29;53.34
59009;BME280;44794;42.652;23.318;2022-12-11T10:08:22;92613.31;;;17.58;52.93
59009;BME280;44794;42.652;23.318;2022-12-11T10:14:09;92603.81;;;17.57;53.17
59009;BME280;44794;42.652;23.318;2022-12-11T10:16:50;92579.59;;;17.30;54.59
59009;BME280;44794;42.652;23.318;2022-12-11T10:19:28;92613.22;;;17.00;53.49
59009;BME280;44794;42.652;23.318;2022-12-11T10:21:55;92601.94;;;17.06;52.99
59009;BME280;44794;42.652;23.318;2022-12-11T10:24:29;92612.44;;;17.19;54.53
59009;BME280;44794;42.652;23.318;2022-12-11T10:26:58;92601.72;;;17.08;56.00
59009;BME280;44794;42.652;23.318;2022-12-11T10:29:24;92598.63;;;16.72;55.40
59009;BME280;44794;42.652;23.318;2022-12-11T10:31:57;92609.47;;;16.56;58.22
59009;BME280;44794;42.652;23.318;2022-12-11T10:34:26;92602.16;;;16.45;59.81
59009;BME280;44794;42.652;23.318;2022-12-11T10:36:54;92595.44;;;16.30;62.27
59009;BME280;44794;42.652;23.318;2022-12-11T10:39:20;92590.44;;;15.40;67.46
59009;BME280;44794;42.652;23.318;2022-12-11T10:41:48;92589.09;;;15.02;69.61
59009;BME280;44794;42.652;23.318;2022-12-11T10:44:21;92561.41;;;15.14;70.64
59009;BME280;44794;42.652;23.318;2022-12-11T10:47:00;92560.00;;;15.32;68.01
59009;BME280;44794;42.652;23.318;2022-12-11T10:49:28;92563.56;;;15.52;63.92
59009;BME280;44794;42.652;23.318;2022-12-11T10:51:55;92577.56;;;15.72;63.42
59009;BME280;44794;42.652;23.318;2022-12-11T10:54:39;92577.38;;;16.07;61.08
59009;BME280;44794;42.652;23.318;2022-12-11T10:57:07;92557.69;;;16.18;62.09
59009;BME280;44794;42.652;23.318;2022-12-11T10:59:43;92577.97;;;16.43;62.22
59009;BME280;44794;42.652;23.318;2022-12-11T11:02:26;92577.63;;;16.65;60.42
59009;BME280;44794;42.652;23.318;2022-12-11T11:04:54;92553.69;;;16.88;61.88
59009;BME280;44794;42.652;23.318;2022-12-11T11:07:22;92560.75;;;16.87;57.59
59009;BME280;44794;42.652;23.318;2022-12-11T11:09:49;92563.19;;;16.82;60.31
59009;BME280;44794;42.652;23.318;2022-12-11T11:12:26;92563.09;;;16.50;58.93
59009;BME280;44794;42.652;23.318;2022-12-11T11:15:05;92562.22;;;16.30;60.71
59009;BME280;44794;42.652;23.318;2022-12-11T11:17:31;92558.28;;;16.13;59.70
59009;BME280;44794;42.652;23.318;2022-12-11T11:20:05;92557.59;;;15.98;59.22
59009;BME280;44794;42.652;23.318;2022-12-11T11:22:41;92561.06;;;16.05;58.66
59009;BME280;44794;42.652;23.318;2022-12-11T11:25:20;92560.09;;;16.19;58.73
59009;BME280;44794;42.652;23.318;2022-12-11T11:27:53;92560.22;;;16.45;59.28
59009;BME280;44794;42.652;23.318;2022-12-11T11:30:39;92564.78;;;16.77;58.65
59009;BME280;44794;42.652;23.318;2022-12-11T11:33:18;92564.00;;;17.09;56.44
59009;BME280;44794;42.652;23.318;2022-12-11T11:35:58;92557.97;;;17.21;56.69
59009;BME280;44794;42.652;23.318;2022-12-11T11:38:34;92561.03;;;17.31;57.51
59009;BME280;44794;42.652;23.318;2022-12-11T11:41:11;92567.25;;;17.24;57.51
59009;BME280;44794;42.652;23.318;2022-12-11T11:43:43;92556.75;;;17.24;57.63
59009;BME280;44794;42.652;23.318;2022-12-11T11:46:28;92564.19;;;17.01;59.78
59009;BME280;44794;42.652;23.318;2022-12-11T11:49:19;92542.81;;;17.04;59.84
59009;BME280;44794;42.652;23.318;2022-12-11T11:52:23;92536.56;;;17.11;60.37
59009;BME280;44794;42.652;23.318;2022-12-11T11:55:02;92526.47;;;16.89;58.85
59009;BME280;44794;42.652;23.318;2022-12-11T11:57:44;92536.03;;;16.30;61.26
59009;BME280;44794;42.652;23.318;2022-12-11T12:00:23;92533.09;;;16.12;62.75
59009;BME280;44794;42.652;23.318;2022-12-11T12:02:52;92543.13;;;16.02;62.12
59009;BME280;44794;42.652;23.318;2022-12-11T12:05:24;92533.50;;;16.09;63.29
59009;BME280;44794;42.652;23.318;2022-12-11T12:10:55;92527.44;;;15.69;67.11
59009;BME280;44794;42.652;23.318;2022-12-11T12:13:33;92510.53;;;15.37;68.67
59009;BME280;44794;42.652;23.318;2022-12-11T12:16:10;92528.59;;;15.26;68.51
59009;BME280;44794;42.652;23.318;2022-12-11T12:18:57;92527.72;;;14.56;67.71
59009;BME280;44794;42.652;23.318;2022-12-11T12:21:33;92501.38;;;13.81;76.11
59009;BME280;44794;42.652;23.318;2022-12-11T12:26:47;92454.94;;;13.41;84.32
59009;BME280;44794;42.652;23.318;2022-12-11T12:36:53;92495.47;;;13.00;78.28
59009;BME280;44794;42.652;23.318;2022-12-11T12:42:46;92490.59;;;12.38;87.63
59009;BME280;44794;42.652;23.318;2022-12-11T12:45:30;92469.91;;;11.39;93.73
59009;BME280;44794;42.652;23.318;2022-12-11T12:47:58;92469.44;;;10.74;94.48
59009;BME280;44794;42.652;23.318;2022-12-11T12:50:25;92443.84;;;9.75;97.79
59009;BME280;44794;42.652;23.318;2022-12-11T12:52:55;92435.34;;;9.26;100.00
59009;BME280;44794;42.652;23.318;2022-12-11T12:55:28;92443.03;;;8.35;100.00
59009;BME280;44794;42.652;23.318;2022-12-11T12:58:05;92414.47;;;8.02;100.00
59009;BME280;44794;42.652;23.318;2022-12-11T13:00:36;92409.47;;;7.58;100.00
59009;BME280;44794;42.652;23.318;2022-12-11T13:03:17;92416.78;;;7.45;100.00
59009;BME280;44794;42.652;23.318;2022-12-11T13:06:04;92401.78;;;7.31;100.00
59009;BME280;44794;42.652;23.318;2022-12-11T13:08:39;92412.63;;;7.17;100.00
59009;BME280;44794;42.652;23.318;2022-12-11T13:11:08;92412.47;;;7.19;100.00
59009;BME280;44794;42.652;23.318;2022-12-11T13:13:40;92420.94;;;6.84;100.00
59009;BME280;44794;42.652;23.318;2022-12-11T13:18:43;92423.38;;;6.69;100.00
59009;BME280;44794;42.652;23.318;2022-12-11T13:21:33;92432.69;;;6.69;100.00
59009;BME280;44794;42.652;23.318;2022-12-11T13:26:50;92446.28;;;6.35;100.00
59009;BME280;44794;42.652;23.318;2022-12-11T13:34:37;92479.34;;;5.85;100.00
59009;BME280;44794;42.652;23.318;2022-12-11T13:37:04;92493.84;;;5.76;100.00
59009;BME280;44794;42.652;23.318;2022-12-11T13:39:33;92489.09;;;5.81;100.00
59009;BME280;44794;42.652;23.318;2022-12-11T13:42:07;92499.50;;;5.70;100.00
59009;BME280;44794;42.652;23.318;2022-12-11T13:44:46;92508.44;;;5.76;100.00
59009;BME280;44794;42.652;23.318;2022-12-11T13:47:14;92497.59;;;5.63;100.00
59009;BME280;44794;42.652;23.318;2022-12-11T13:49:42;92503.97;;;5.59;100.00
59009;BME280;44794;42.652;23.318;2022-12-11T13:52:20;92524.56;;;5.40;100.00
59009;BME280;44794;42.652;23.318;2022-12-11T13:54:54;92530.91;;;5.55;100.00